Volkel Air Base

EHVK · Noord-Brabant, Nederland

METAR historie EHVK · Volkel Air Base

Hieronder zie je METAR's van de afgelopen dagen. Kies een jaar om door oudere METAR's te bladeren, vanaf het jaar 2007.

2 maart 2024

Tijd Code Weer Temp. Zicht Plafond Wind METAR/SPECI
20:55
V
12 °C 10 km+ 8.100 ft 130° 130° 9 kt METAR EHVK 021955Z AUTO 13009KT 100V170 9999 FEW075 BKN081 BKN270 12/05 Q0998 BLU
20:25
V
12 °C 10 km+ 8.300 ft 130° 130° 10 kt METAR EHVK 021925Z AUTO 13010KT 100V170 9999 BKN083 OVC089 12/05 Q0999 BLU
19:55
V
12 °C 10 km+ 6.500 ft 130° 130° 8 kt METAR EHVK 021855Z AUTO 13008KT 100V160 9999 OVC065 12/05 Q0999 BLU
19:25
V
12 °C 10 km+ 6.100 ft 120° 120° 8 kt METAR EHVK 021825Z AUTO 12008KT 080V150 9999 OVC061 12/05 Q0999 BLU
18:55
V
12 °C 10 km+ 6.200 ft 120° 120° 8 kt METAR EHVK 021755Z AUTO 12008KT 090V150 9999 FEW057 BKN062 BKN072 12/05 Q0999 BLU
18:25
V
12 °C 10 km+ 6.000 ft 130° 130° 9 kt METAR EHVK 021725Z AUTO 13009KT 100V170 9999 BKN060 OVC250 12/06 Q0998 BLU
17:55
V
12 °C 10 km+ 25.000 ft 130° 130° 9 kt METAR EHVK 021655Z AUTO 13009KT 090V160 9999 OVC250 12/06 Q0998 BLU
17:25
V
13 °C 10 km+ 23.000 ft 130° 130° 10 kt METAR EHVK 021625Z AUTO 13010KT 9999 FEW060 OVC230 13/05 Q0998 BLU
16:55
V
13 °C 10 km+ 6.000 ft 150° 150° 13 kt METAR EHVK 021555Z AUTO 15013KT 120V190 9999 SCT054 BKN060 BKN250 13/04 Q0999 BLU
16:25
V
13 °C 10 km+ - 140° 140° 10 kt METAR EHVK 021525Z AUTO 14010KT 9999 SCT250 13/04 Q0999 BLU
15:55
V
13 °C 10 km+ 16.000 ft 140° 140° 10 kt METAR EHVK 021455Z AUTO 14010KT 090V150 9999 FEW047 BKN160 BKN220 13/04 Q0999 BLU
15:25
V
13 °C 10 km+ - 140° 140° 11 kt METAR EHVK 021425Z AUTO 14011KT 090V170 9999 FEW045 SCT180 13/04 Q0999 BLU
14:55
V
14 °C 10 km+ 19.000 ft 140° 140° 11 kt METAR EHVK 021355Z AUTO 14011KT 120V190 9999 SCT044 BKN190 14/04 Q0999 BLU
14:25
V
12 °C 10 km+ 13.000 ft 160° 160° 11 kt METAR EHVK 021325Z AUTO 16011KT 100V170 9999 OVC130 12/03 Q1000 BLU
13:55
V
13 °C 10 km+ 15.000 ft 150° 150° 11 kt METAR EHVK 021255Z AUTO 15011KT 120V200 9999 OVC150 13/03 Q1000 BLU
13:25
V
12 °C 10 km+ - 160° 160° 11 kt METAR EHVK 021225Z AUTO 16011KT 120V210 9999 SCT160 12/03 Q1000 BLU
12:55
V
12 °C 10 km+ - 160° 160° 13 kt METAR EHVK 021155Z AUTO 16013KT 110V200 9999 FEW180 12/04 Q1000 BLU
12:25
V
11 °C 10 km+ - 160° 160° 12 kt METAR EHVK 021125Z AUTO 16012KT 140V210 9999 FEW300 11/04 Q1001 BLU
11:55
V
11 °C 10 km+ - 160° 160° 12 kt METAR EHVK 021055Z AUTO 16012KT 130V210 9999 FEW032 SCT290 11/03 Q1001 BLU
11:25
V
11 °C 10 km+ - 180° 180° 12 kt METAR EHVK 021025Z AUTO 18012KT 130V210 9999 FEW300 11/04 Q1001 BLU
10:55
V
10 °C 10 km+ - 170° 170° 13 kt METAR EHVK 020955Z AUTO 17013KT 130V210 9999 FEW210 SCT300 10/03 Q1001 BLU
10:25
V
10 °C 10 km+ - 180° 180° 13 kt METAR EHVK 020925Z AUTO 18013KT 120V210 9999 SCT310 10/04 Q1001 BLU
09:55
V
9 °C 10 km+ - 180° 180° 10 kt METAR EHVK 020855Z AUTO 18010KT 150V210 9999 NCD 09/04 Q1001 BLU
09:25
V
8 °C 10 km+ 20.000 ft 190° 190° 11 kt METAR EHVK 020825Z AUTO 19011KT 160V230 9999 OVC200 08/03 Q1001 BLU
08:55
V
8 °C 10 km+ 18.000 ft 180° 180° 9 kt METAR EHVK 020755Z AUTO 18009KT 150V230 9999 OVC180 08/04 Q1001 BLU
08:25
V
7 °C 10 km+ 18.000 ft 180° 180° 8 kt METAR EHVK 020725Z AUTO 18008KT 160V230 9999 BKN180 BKN300 07/03 Q1001 BLU
07:55
V
6 °C 10 km+ 18.000 ft 180° 180° 6 kt METAR EHVK 020655Z AUTO 18006KT 150V220 9999 SCT026 BKN180 06/03 Q1000 BLU
07:25
M
7 °C 10 km+ 2.900 ft 180° 180° 7 kt METAR EHVK 020625Z AUTO 18007KT 150V230 9999 SCT025 OVC029 07/03 Q1000 BLU
06:55
V
6 °C 10 km+ 11.000 ft 170° 170° 6 kt METAR EHVK 020555Z AUTO 17006KT 140V200 9999 FEW028 BKN110 06/03 Q1000 BLU
06:25
M
7 °C 10 km+ 2.500 ft 180° 180° 6 kt METAR EHVK 020525Z AUTO 18006KT 140V200 9999 OVC025 07/04 Q1000 BLU
05:55
V
7 °C 10 km+ 10.000 ft 180° 180° 10 kt METAR EHVK 020455Z AUTO 18010KT 150V220 9999 SCT096 OVC100 07/03 Q0999 BLU
05:25
V
7 °C 10 km+ 3.400 ft 180° 180° 9 kt METAR EHVK 020425Z AUTO 18009KT 140V220 9999 SCT030 BKN034 OVC066 07/04 Q0999 BLU
05:15
V
7 °C 10 km+ 3.100 ft 170° 170° 8 kt METAR EHVK 020415Z AUTO 17008KT 120V220 9999 FEW019 BKN031 BKN073 07/04 Q0999 BLU
04:59
M
7 °C 10 km+ 2.400 ft 190° 190° 9 kt METAR EHVK 020359Z AUTO 19009KT 140V230 9999 SCT019 BKN024 BKN034 07/04 Q0999 WHT
04:55
V
7 °C 10 km+ 4.900 ft 190° 190° 8 kt METAR EHVK 020355Z AUTO 19008KT 140V230 9999 FEW023 SCT032 BKN049 07/04 Q0999 BLU
04:25
V
7 °C 10 km+ 6.300 ft 190° 190° 9 kt METAR EHVK 020325Z AUTO 19009KT 150V230 9999 FEW047 BKN063 OVC069 07/04 Q0999 BLU
03:55
V
8 °C 10 km+ 4.400 ft 190° 190° 10 kt METAR EHVK 020255Z AUTO 19010KT 140V230 9999 FEW040 BKN044 BKN050 08/04 Q0999 REDZ BLU
03:36
V
8 °C 10 km+ 5.500 ft 190° 190° 10 kt METAR EHVK 020236Z AUTO 19010KT 150V230 9999 DZRA SCT050 OVC055 08/04 Q0999 BLU
03:25
V
8 °C 10 km+ 4.900 ft 190° 190° 10 kt METAR EHVK 020225Z AUTO 19010KT 160V220 9999 DZ FEW036 BKN049 OVC054 08/04 Q0999 BLU
02:55
V
8 °C 10 km+ 4.800 ft 190° 190° 8 kt METAR EHVK 020155Z AUTO 19008KT 150V220 9999 FEW037 SCT043 OVC048 08/04 Q0999 BLU
02:25
V
8 °C 10 km+ 3.600 ft 210° 210° 11 kt METAR EHVK 020125Z AUTO 21011KT 180V250 9999 BKN036 OVC040 08/05 Q0999 BLU
01:55
M
8 °C 10 km+ 2.800 ft 220° 220° 15 kt METAR EHVK 020055Z AUTO 22015KT 130V280 9999 FEW021 SCT025 BKN028 08/04 Q0999 BLU
01:25
V
9 °C 10 km+ 3.900 ft 140° 140° 11 kt METAR EHVK 020025Z AUTO 14011KT 110V170 9999 FEW035 BKN039 OVC043 09/03 Q0998 BLU
00:55
V
9 °C 10 km+ 9.600 ft 140° 140° 11 kt METAR EHVK 012355Z AUTO 14011KT 110V170 9999 FEW088 BKN096 OVC100 09/03 Q0998 BLU
00:25
V
9 °C 10 km+ 10.000 ft 140° 140° 14 kt METAR EHVK 012325Z AUTO 14014KT 9999 SCT036 OVC100 09/03 Q0998 BLU

1 maart 2024

Tijd Code Weer Temp. Zicht Plafond Wind METAR/SPECI
23:55
V
8 °C 10 km+ 12.000 ft 140° 140° 12 kt METAR EHVK 012255Z AUTO 14012KT 110V170 9999 BKN120 08/03 Q0998 BLU
23:25
V
9 °C 10 km+ 9.300 ft 130° 130° 11 kt METAR EHVK 012225Z AUTO 13011KT 090V150 9999 SCT087 BKN093 OVC099 09/03 Q0998 BLU
22:55
V
8 °C 10 km+ 8.600 ft 120° 120° 10 kt METAR EHVK 012155Z AUTO 12010KT 100V160 9999 BKN086 BKN092 OVC098 08/03 Q0999 BLU
22:25
V
8 °C 10 km+ 12.000 ft 120° 120° 9 kt METAR EHVK 012125Z AUTO 12009KT 9999 FEW099 OVC120 08/03 Q0999 BLU
21:55
V
8 °C 10 km+ 4.000 ft 120° 120° 8 kt METAR EHVK 012055Z AUTO 12008KT 090V150 9999 OVC040 08/03 Q0999 BLU
21:25
V
7 °C 10 km+ 4.900 ft 120° 120° 7 kt METAR EHVK 012025Z AUTO 12007KT 9999 SCT041 BKN049 OVC140 07/03 Q1000 BLU
20:55
V
7 °C 10 km+ 23.000 ft 120° 120° 5 kt METAR EHVK 011955Z AUTO 12005KT 9999 FEW066 OVC230 07/03 Q1000 BLU
20:25
V
8 °C 10 km+ 7.100 ft 150° 150° 6 kt METAR EHVK 011925Z AUTO 15006KT 9999 BKN071 08/03 Q1000 BLU
19:55
V
8 °C 10 km+ - 160° 160° 8 kt METAR EHVK 011855Z AUTO 16008KT 120V190 9999 SCT230 08/03 Q1000 BLU
19:25
V
9 °C 10 km+ 22.000 ft 160° 160° 8 kt METAR EHVK 011825Z AUTO 16008KT 130V190 9999 OVC220 09/03 Q1000 BLU
18:55
V
10 °C 10 km+ 4.800 ft 180° 180° 10 kt METAR EHVK 011755Z AUTO 18010KT 9999 FEW044 OVC048 10/03 Q1000 BLU
18:25
V
10 °C 10 km+ 4.900 ft 180° 180° 13 kt METAR EHVK 011725Z AUTO 18013KT 140V230 9999 FEW039 OVC049 10/03 Q1000 BLU
17:55
V
10 °C 10 km+ 3.800 ft 170° 170° 11 kt METAR EHVK 011655Z AUTO 17011KT 130V200 9999 OVC038 10/03 Q1000 BLU
17:25
V
10 °C 10 km+ 3.900 ft 160° 160° 12 kt METAR EHVK 011625Z AUTO 16012KT 130V200 9999 OVC039 10/03 Q1000 BLU
16:55
V
10 °C 10 km+ 4.000 ft 170° 170° 12 kt METAR EHVK 011555Z AUTO 17012KT 130V200 9999 OVC040 10/03 Q1000 BLU
16:25
V
10 °C 10 km+ 3.900 ft 160° 160° 12 kt METAR EHVK 011525Z AUTO 16012KT 130V190 9999 OVC039 10/02 Q1001 BLU
16:01
V
10 °C 10 km+ 3.900 ft 160° 160° 13 kt METAR EHVK 011501Z AUTO 16013KT 120V200 9999 OVC039 10/02 Q1000 BLU
15:55
V
10 °C 10 km+ 4.000 ft 160° 160° 13 kt METAR EHVK 011455Z AUTO 16013KT 140V200 9999 OVC040 10/02 Q1001 BLU TEMPO 18014G24KT
15:25
V
10 °C 10 km+ 4.100 ft 160° 160° 12 kt METAR EHVK 011425Z AUTO 16012KT 130V200 9999 OVC041 10/02 Q1001 BLU TEMPO 18014G24KT
14:55
V
10 °C 10 km+ 4.100 ft 170° 170° 14 kt METAR EHVK 011355Z AUTO 17014KT 130V200 9999 OVC041 10/03 Q1001 BLU TEMPO 18014G24KT
14:25
V
10 °C 10 km+ 4.500 ft 170° 170° 14 kt METAR EHVK 011325Z AUTO 17014KT 130V190 9999 OVC045 10/03 Q1001 BLU TEMPO 18014G24KT
13:55
V
10 °C 10 km+ 5.100 ft 160° 160° 15 kt METAR EHVK 011255Z AUTO 16015KT 130V200 9999 FEW044 BKN051 OVC057 10/03 Q1001 BLU TEMPO 18014G24KT
13:25
V
10 °C 10 km+ - 160° 160° 18 kt METAR EHVK 011225Z AUTO 16018KT 130V210 9999 FEW067 SCT073 10/03 Q1001 BLU TEMPO 18014G24KT
12:55
V
9 °C 10 km+ - 160° 160° 16 kt METAR EHVK 011155Z AUTO 16016KT 120V210 9999 FEW027 SCT030 09/03 Q1002 BLU TEMPO 18014G24KT
12:25
V
10 °C 10 km+ - 170° 170° 14 kt METAR EHVK 011125Z AUTO 17014KT 130V200 9999 FEW024 10/04 Q1002 BLU TEMPO 18014G24KT
12:16
V
9 °C 10 km+ - 170° 170° 16 kt METAR EHVK 011116Z AUTO 17016KT 130V210 9999 SCT024 SCT027 09/03 Q1002 WHT TEMPO 18014G24KT
12:04
V
9 °C 10 km+ - 160° 160° 14 kt METAR EHVK 011104Z AUTO 16014KT 140V210 9999 FEW022 SCT026 09/04 Q1003 BLU BECMG NSC TEMPO 18014G24KT
11:55
M
8 °C 10 km+ 2.000 ft 190° 190° 12 kt METAR EHVK 011055Z AUTO 19012KT 140V210 9999 BKN020 08/04 Q1003 WHT BECMG NSC TEMPO 18014G24KT
11:25
M
8 °C 10 km+ 2.100 ft 180° 180° 11 kt METAR EHVK 011025Z AUTO 18011KT 140V230 9999 SCT017 BKN021 08/05 Q1003 WHT BECMG NSC TEMPO 18014G24KT
11:14
M
8 °C 10 km+ 2.000 ft 180° 180° 12 kt METAR EHVK 011014Z AUTO 18012KT 150V230 9999 SCT017 BKN020 08/04 Q1003 WHT BECMG NSC TEMPO 18014G24KT
11:05
M
8 °C 10 km+ 1.700 ft 180° 180° 14 kt METAR EHVK 011005Z AUTO 18014KT 150V230 9999 BKN017 BKN020 08/04 Q1003 WHT BECMG NSC TEMPO 18012G24KT
11:01
M
8 °C 10 km+ 1.700 ft 180° 180° 12 - 22 kt METAR EHVK 011001Z AUTO 18012G22KT 140V230 9999 BKN017 BKN020 08/04 Q1003 WHT TEMPO 18012G24KT
10:55
M
8 °C 10 km+ 2.000 ft 180° 180° 12 kt METAR EHVK 010955Z AUTO 18012KT 150V230 9999 SCT016 BKN020 08/04 Q1003 WHT BECMG 18012G22KT
10:34
V
8 °C 10 km+ - 190° 190° 11 kt METAR EHVK 010934Z AUTO 19011KT 140V230 9999 FEW014 08/05 Q1003 BLU BECMG 18012G22KT
10:33
V
7 °C 10 km+ - 190° 190° 12 kt METAR EHVK 010933Z AUTO 19012KT 150V230 9999 SCT014 07/04 Q1003 GRN BECMG 18012G22KT
10:26
V
8 °C 10 km+ - 190° 190° 11 kt METAR EHVK 010926Z AUTO 19011KT 160V230 9999 FEW014 SCT016 08/04 Q1003 WHT BECMG 18012G22KT
10:25
V
8 °C 10 km+ - 200° 200° 10 kt METAR EHVK 010925Z AUTO 20010KT 160V230 9999 FEW014 08/05 Q1003 BLU BECMG 18012G22KT
09:55
V
7 °C 10 km+ 25.000 ft 190° 190° 10 kt METAR EHVK 010855Z AUTO 19010KT 150V240 9999 BKN250 07/04 Q1003 BLU BECMG 18012G22KT
09:34
V
7 °C 10 km+ 23.000 ft 210° 210° 11 kt METAR EHVK 010834Z AUTO 21011KT 170V240 9999 FEW011 OVC230 07/05 Q1003 BLU BECMG 18012G22KT
09:33
V
7 °C 10 km+ 23.000 ft 210° 210° 11 kt METAR EHVK 010833Z AUTO 21011KT 170V240 9999 FEW011 OVC230 07/04 Q1003 BLU BECMG 18012G23KT
09:25
V
6 °C 10 km+ 23.000 ft 210° 210° 11 kt METAR EHVK 010825Z AUTO 21011KT 170V240 9999 OVC230 06/04 Q1003 BLU NOSIG
08:55
V
6 °C 10 km+ 25.000 ft 210° 210° 8 kt METAR EHVK 010755Z AUTO 21008KT 170V250 9999 FEW010 BKN250 06/05 Q1003 BLU NOSIG
08:41
V
6 °C 10 km+ - 210° 210° 9 kt METAR EHVK 010741Z AUTO 21009KT 170V240 9999 FEW009 06/05 Q1003 BLU BECMG 18010KT NSC
08:31
I
6 °C 10 km+ 900 ft 220° 220° 8 kt METAR EHVK 010731Z AUTO 22008KT 170V250 9999 FEW007 SCT008 BKN009 06/05 Q1003 GRN BECMG 18010KT NSC
08:25
I
6 °C 10 km+ 800 ft 220° 220° 8 kt METAR EHVK 010725Z AUTO 22008KT 9999 FEW006 BKN008 OVC009 06/05 Q1003 GRN BECMG 19011KT NSC
08:03
M
6 °C 10 km+ 1.000 ft 230° 230° 8 kt METAR EHVK 010703Z AUTO 23008KT 9999 FEW007 SCT009 BKN010 06/05 Q1003 GRN BECMG 19011KT NSC
07:56
M
6 °C 10 km+ 2.300 ft 230° 230° 8 kt METAR EHVK 010656Z AUTO 23008KT 9999 FEW008 SCT010 BKN023 06/05 Q1003 GRN BECMG 19011KT NSC
07:43
V
5 °C 10 km+ 22.000 ft 240° 240° 8 kt METAR EHVK 010643Z AUTO 24008KT 9999 FEW009 OVC220 05/04 Q1003 BLU BECMG 19011KT
07:25
V
5 °C 10 km+ 22.000 ft 240° 240° 8 kt METAR EHVK 010625Z AUTO 24008KT 9999 FEW023 SCT080 OVC220 05/04 Q1002 BLU
07:20
V
6 °C 10 km+ 7.900 ft 240° 240° 8 kt METAR EHVK 010620Z AUTO 24008KT 9999 FEW023 OVC079 06/04 Q1002 BLU
07:11
M
6 °C 10 km+ 2.000 ft 240° 240° 8 kt METAR EHVK 010611Z AUTO 24008KT 210V270 9999 FEW009 OVC020 06/05 Q1002 WHT
06:55
M
6 °C 10 km+ 1.000 ft 240° 240° 8 kt METAR EHVK 010555Z AUTO 24008KT 9999 FEW007 SCT009 BKN010 06/05 Q1002 GRN
06:38
M
6 °C 10 km+ 1.200 ft 250° 250° 9 kt METAR EHVK 010538Z AUTO 25009KT 220V280 9999 SCT010 BKN012 BKN014 06/05 Q1002 GRN
06:25
I
6 °C 10 km+ 900 ft 250° 250° 9 kt METAR EHVK 010525Z AUTO 25009KT 220V280 9999 SCT007 BKN009 BKN014 06/05 Q1002 GRN
06:14
I
6 °C 10 km+ 700 ft 250° 250° 9 kt METAR EHVK 010514Z AUTO 25009KT 9999 FEW006 BKN007 OVC008 06/05 Q1002 GRN
06:08
I
6 °C 10 km+ 600 ft 240° 240° 8 kt METAR EHVK 010508Z AUTO 24008KT 9999 -DZ BKN006 BKN007 OVC009 06/06 Q1001 YLO
06:01
I
7 °C 10 km+ 800 ft 240° 240° 8 kt METAR EHVK 010501Z AUTO 24008KT 9999 -DZ SCT006 BKN008 OVC009 07/06 Q1001 YLO
05:55
M
7 °C 10 km+ 1.000 ft 240° 240° 7 kt METAR EHVK 010455Z AUTO 24007KT 9999 -DZ FEW007 SCT009 OVC010 07/06 Q1001 GRN
05:43
M
7 °C 10 km+ 3.000 ft 240° 240° 8 kt METAR EHVK 010443Z AUTO 24008KT 220V290 9999 FEW008 SCT010 BKN030 07/06 Q1001 GRN
05:35
M
7 °C 10 km+ 2.700 ft 260° 260° 9 kt METAR EHVK 010435Z AUTO 26009KT 230V300 9999 FEW006 SCT008 OVC027 07/06 Q1001 GRN
05:25
M
7 °C 6 km 1.300 ft 260° 260° 11 kt METAR EHVK 010425Z AUTO 26011KT 240V300 6000 BR FEW007 SCT010 BKN013 07/06 Q1001 REDZ GRN
05:15
I
8 °C 10 km+ 800 ft 260° 260° 13 kt METAR EHVK 010415Z AUTO 26013KT 240V300 9999 FEW007 BKN008 BKN010 08/07 Q1001 GRN
05:03
M
9 °C 10 km+ 1.100 ft 200° 200° 9 kt METAR EHVK 010403Z AUTO 20009KT 150V230 9999 DZRA FEW008 SCT009 OVC011 09/07 Q1000 GRN
04:55
M
9 °C 10 km+ 1.100 ft 180° 180° 8 kt METAR EHVK 010355Z AUTO 18008KT 140V200 9999 BKN011 BKN013 OVC017 09/07 Q1000 GRN
04:37
M
9 °C 10 km+ 1.600 ft 170° 170° 9 kt METAR EHVK 010337Z AUTO 17009KT 140V200 9999 -RA SCT013 BKN016 OVC022 09/06 Q1000 GRN
04:25
M
9 °C 10 km+ 2.200 ft 170° 170° 10 kt METAR EHVK 010325Z AUTO 17010KT 140V200 9999 FEW013 SCT016 BKN022 09/06 Q1000 WHT
04:20
M
9 °C 10 km+ 2.100 ft 170° 170° 11 kt METAR EHVK 010320Z AUTO 17011KT 9999 FEW013 SCT016 BKN021 09/06 Q1000 WHT
04:16
V
9 °C 10 km+ 3.800 ft 170° 170° 10 kt METAR EHVK 010316Z AUTO 17010KT 9999 FEW017 SCT024 OVC038 09/06 Q1000 WHT
03:55
V
9 °C 10 km+ 3.600 ft 170° 170° 11 kt METAR EHVK 010255Z AUTO 17011KT 140V200 9999 FEW019 BKN036 OVC041 09/06 Q1000 BLU
03:25
V
9 °C 10 km+ 13.000 ft 170° 170° 10 kt METAR EHVK 010225Z AUTO 17010KT 130V200 9999 FEW039 SCT051 OVC130 09/05 Q1000 BLU
03:09
M
9 °C 10 km+ 2.800 ft 160° 160° 9 kt METAR EHVK 010209Z AUTO 16009KT 9999 FEW024 BKN028 OVC036 09/05 Q1001 BLU
03:05
M
9 °C 10 km+ 2.700 ft 160° 160° 9 kt METAR EHVK 010205Z AUTO 16009KT 140V200 9999 SCT024 BKN027 OVC030 09/05 Q1001 WHT
02:55
M
9 °C 10 km+ 2.600 ft 160° 160° 9 kt METAR EHVK 010155Z AUTO 16009KT 140V200 9999 BKN026 OVC030 09/05 Q1001 BLU
02:25
M
9 °C 10 km+ 2.700 ft 160° 160° 8 kt METAR EHVK 010125Z AUTO 16008KT 9999 OVC027 09/05 Q1001 BLU
02:18
M
9 °C 10 km+ 2.500 ft 160° 160° 8 kt METAR EHVK 010118Z AUTO 16008KT 140V200 9999 BKN025 OVC029 09/05 Q1001 BLU
01:55
M
9 °C 10 km+ 2.400 ft 160° 160° 8 kt METAR EHVK 010055Z AUTO 16008KT 130V190 9999 FEW018 OVC024 09/05 Q1001 WHT
01:25
M
9 °C 10 km+ 1.800 ft 160° 160° 8 kt METAR EHVK 010025Z AUTO 16008KT 140V210 9999 BKN018 BKN025 OVC028 09/05 Q1002 WHT
00:55
M
9 °C 10 km+ 1.900 ft 160° 160° 8 kt METAR EHVK 292355Z AUTO 16008KT 9999 OVC019 09/05 Q1002 WHT
00:25
M
9 °C 10 km+ 1.900 ft 150° 150° 6 kt METAR EHVK 292325Z AUTO 15006KT 9999 OVC019 09/05 Q1002 WHT

29 februari 2024

Tijd Code Weer Temp. Zicht Plafond Wind METAR/SPECI
23:55
M
9 °C 10 km+ 2.100 ft 160° 160° 10 kt METAR EHVK 292255Z AUTO 16010KT 130V190 9999 BKN021 OVC026 09/05 Q1002 WHT
23:37
M
8 °C 10 km+ 2.100 ft 150° 150° 7 kt METAR EHVK 292237Z AUTO 15007KT 110V180 9999 BKN021 OVC036 08/06 Q1002 WHT
23:33
V
9 °C 10 km+ 3.600 ft 150° 150° 7 kt METAR EHVK 292233Z AUTO 15007KT 9999 SCT022 BKN036 BKN042 09/06 Q1002 WHT
23:26
V
9 °C 10 km+ 4.400 ft 140° 140° 7 kt METAR EHVK 292226Z AUTO 14007KT 9999 SCT028 BKN044 OVC050 09/06 Q1002 BLU
23:25
M
9 °C 10 km+ 2.900 ft 140° 140° 7 kt METAR EHVK 292225Z AUTO 14007KT 9999 SCT023 BKN029 OVC047 09/06 Q1002 WHT
22:55
M
9 °C 10 km+ 2.200 ft 160° 160° 9 kt METAR EHVK 292155Z AUTO 16009KT 9999 BKN022 OVC025 09/05 Q1003 WHT
22:25
V
9 °C 10 km+ 5.500 ft 160° 160° 8 kt METAR EHVK 292125Z AUTO 16008KT 110V190 9999 -RADZ SCT027 SCT047 BKN055 09/06 Q1003 BLU
22:10
M
9 °C 10 km+ 2.900 ft 160° 160° 8 kt METAR EHVK 292110Z AUTO 16008KT 9999 SCT026 BKN029 BKN044 09/06 Q1003 BLU
22:06
V
9 °C 10 km+ 3.200 ft 160° 160° 9 kt METAR EHVK 292106Z AUTO 16009KT 120V190 9999 SCT024 SCT029 BKN032 09/07 Q1003 WHT
22:01
M
9 °C 10 km+ 3.000 ft 160° 160° 9 kt METAR EHVK 292101Z AUTO 16009KT 120V200 9999 FEW022 SCT025 BKN030 09/07 Q1003 BLU
21:55
M
9 °C 10 km+ 2.800 ft 170° 170° 10 kt METAR EHVK 292055Z AUTO 17010KT 130V200 9999 -DZ FEW018 SCT021 BKN028 09/07 Q1004 WHT
21:41
M
9 °C 9 km 1.700 ft 180° 180° 11 kt METAR EHVK 292041Z AUTO 18011KT 120V200 9000 -DZRA OVC017 09/07 Q1004 WHT
21:33
V
9 °C 10 km+ 3.300 ft 170° 170° 8 kt METAR EHVK 292033Z AUTO 17008KT 120V200 9999 FEW017 SCT021 BKN033 09/07 Q1004 WHT
21:25
M
9 °C 10 km+ 3.000 ft 160° 160° 5 kt METAR EHVK 292025Z AUTO 16005KT 130V200 9999 SCT026 BKN030 BKN041 09/07 Q1004 BLU
21:15
M
9 °C 10 km+ 2.500 ft 160° 160° 5 kt METAR EHVK 292015Z AUTO 16005KT 130V190 9999 FEW021 OVC025 09/07 Q1004 BLU
20:55
M
9 °C 10 km+ 2.000 ft 170° 170° 6 kt METAR EHVK 291955Z AUTO 17006KT 130V190 9999 FEW016 BKN020 BKN025 09/07 Q1004 WHT
20:25
M
9 °C 10 km+ 2.000 ft 160° 160° 6 kt METAR EHVK 291925Z AUTO 16006KT 9999 OVC020 09/07 Q1004 WHT
19:55
M
9 °C 10 km+ 2.200 ft 170° 170° 7 kt METAR EHVK 291855Z AUTO 17007KT 140V200 9999 DZ OVC022 09/07 Q1004 WHT
19:42
M
9 °C 10 km+ 2.000 ft 160° 160° 6 kt METAR EHVK 291842Z AUTO 16006KT 130V200 9999 -SHRA OVC020 09/08 Q1004 WHT
19:25
M
9 °C 10 km+ 1.800 ft 160° 160° 5 kt METAR EHVK 291825Z AUTO 16005KT 9999 -RA OVC018 09/08 Q1005 WHT
19:11
M
9 °C 10 km+ 2.100 ft 170° 170° 4 kt METAR EHVK 291811Z AUTO 17004KT 130V190 9999 -SHRA SCT018 OVC021 09/08 Q1005 WHT
18:55
M
9 °C 10 km+ 2.200 ft 170° 170° 4 kt METAR EHVK 291755Z AUTO 17004KT 9999 -RA OVC022 09/08 Q1005 RERA REDZ WHT
18:25
M
9 °C 10 km+ 1.900 ft 180° 180° 4 kt METAR EHVK 291725Z AUTO 18004KT 140V200 9999 -DZ OVC019 09/08 Q1005 REDZ WHT
17:55
M
9 °C 10 km+ 1.800 ft 170° 170° 7 kt METAR EHVK 291655Z AUTO 17007KT 140V200 9999 DZ OVC018 09/08 Q1005 WHT
17:36
M
9 °C 10 km+ 1.900 ft 170° 170° 8 kt METAR EHVK 291636Z AUTO 17008KT 130V200 9999 +DZRA OVC019 09/08 Q1005 WHT
17:25
M
9 °C 10 km+ 1.900 ft 170° 170° 8 kt METAR EHVK 291625Z AUTO 17008KT 140V200 9999 +DZ OVC019 09/08 Q1006 WHT
17:20
M
9 °C 10 km+ 1.600 ft 170° 170° 8 kt METAR EHVK 291620Z AUTO 17008KT 130V200 9999 +DZRA OVC016 09/08 Q1006 WHT
17:08
M
9 °C 10 km+ 1.500 ft 170° 170° 7 kt METAR EHVK 291608Z AUTO 17007KT 140V200 9999 -RA OVC015 09/08 Q1006 WHT
16:59
M
9 °C 10 km+ 1.600 ft 160° 160° 6 kt METAR EHVK 291559Z AUTO 16006KT 130V190 9999 DZRA OVC016 09/08 Q1006 WHT
16:55
M
9 °C 10 km+ 1.600 ft 160° 160° 7 kt METAR EHVK 291555Z AUTO 16007KT 9999 DZ OVC016 09/08 Q1006 WHT
16:25
M
9 °C 10 km+ 1.600 ft 160° 160° 6 kt METAR EHVK 291525Z AUTO 16006KT 140V200 9999 DZ OVC016 09/08 Q1006 WHT
16:06
M
9 °C 10 km+ 1.600 ft 160° 160° 7 kt METAR EHVK 291506Z AUTO 16007KT 130V190 9999 DZ OVC016 09/08 Q1006 WHT
15:59
M
9 °C 10 km+ 1.600 ft 170° 170° 7 kt METAR EHVK 291459Z AUTO 17007KT 9999 DZRA OVC016 09/08 Q1006 WHT TEMPO SCT012 BKN014
15:55
M
9 °C 10 km+ 1.600 ft 170° 170° 7 kt METAR EHVK 291455Z AUTO 17007KT 130V200 9999 -RA OVC016 09/08 Q1006 RERA REDZ WHT TEMPO SCT012 BKN014
15:32
M
9 °C 10 km+ 1.600 ft 170° 170° 8 kt METAR EHVK 291432Z AUTO 17008KT 140V200 9999 DZRA FEW013 OVC016 09/08 Q1007 WHT TEMPO SCT012 BKN014
15:29
M
9 °C 10 km+ 1.500 ft 170° 170° 8 kt METAR EHVK 291429Z AUTO 17008KT 130V200 9999 -RA FEW013 OVC015 09/08 Q1007 WHT TEMPO SCT012 BKN014
15:25
M
9 °C 10 km+ 1.400 ft 170° 170° 9 kt METAR EHVK 291425Z AUTO 17009KT 130V200 9999 +DZRA BKN014 OVC017 09/07 Q1007 GRN TEMPO SCT012 BKN014
15:15
M
9 °C 10 km+ 1.400 ft 170° 170° 8 kt METAR EHVK 291415Z AUTO 17008KT 140V200 9999 -RA OVC014 09/08 Q1007 GRN TEMPO SCT012 BKN014
15:10
M
9 °C 10 km+ 1.500 ft 170° 170° 9 kt METAR EHVK 291410Z AUTO 17009KT 130V200 9999 DZRA FEW013 OVC015 09/08 Q1007 WHT TEMPO SCT012 BKN014
15:01
M
9 °C 10 km+ 1.600 ft 170° 170° 8 kt METAR EHVK 291401Z AUTO 17008KT 130V200 9999 +DZ FEW013 OVC016 09/08 Q1007 WHT TEMPO SCT012 BKN014
14:55
M
9 °C 10 km+ 1.500 ft 170° 170° 9 kt METAR EHVK 291355Z AUTO 17009KT 140V200 9999 DZRA OVC015 09/08 Q1007 REDZ WHT TEMPO SCT012 BKN014
14:44
M
9 °C 10 km+ 1.600 ft 170° 170° 11 kt METAR EHVK 291344Z AUTO 17011KT 140V210 9999 +DZ SCT014 OVC016 09/07 Q1008 GRN TEMPO SCT012 BKN014
14:40
M
9 °C 10 km+ 1.500 ft 170° 170° 10 kt METAR EHVK 291340Z AUTO 17010KT 130V210 9999 DZRA FEW012 OVC015 09/07 Q1008 WHT TEMPO SCT012 BKN014
14:25
M
9 °C 10 km+ 1.600 ft 170° 170° 10 kt METAR EHVK 291325Z AUTO 17010KT 140V200 9999 -RA OVC016 09/07 Q1008 RERA REDZ WHT TEMPO SCT012 BKN014
14:18
M
9 °C 10 km+ 1.600 ft 170° 170° 10 kt METAR EHVK 291318Z AUTO 17010KT 140V200 9999 +DZRA OVC016 09/07 Q1008 WHT TEMPO SCT012 BKN014
13:59
M
9 °C 10 km+ 1.400 ft 180° 180° 11 kt METAR EHVK 291259Z AUTO 18011KT 140V220 9999 DZ BKN014 OVC018 09/07 Q1008 GRN TEMPO SCT012 BKN014
13:55
M
9 °C 10 km+ 1.400 ft 180° 180° 11 kt METAR EHVK 291255Z AUTO 18011KT 140V210 9999 -RADZ BKN014 OVC018 09/07 Q1008 GRN TEMPO 4500 RADZ SCT012 BKN014
13:35
M
9 °C 10 km+ 1.500 ft 180° 180° 13 kt METAR EHVK 291235Z AUTO 18013KT 140V210 9999 DZRA OVC015 09/07 Q1009 WHT TEMPO 4500 RADZ SCT012 BKN014
13:25
M
10 °C 10 km+ 1.600 ft 180° 180° 10 kt METAR EHVK 291225Z AUTO 18010KT 140V200 9999 -RA OVC016 10/07 Q1009 RERA REDZ WHT TEMPO 4500 RADZ SCT012 BKN014
13:16
M
10 °C 10 km+ 1.500 ft 190° 190° 10 kt METAR EHVK 291216Z AUTO 19010KT 140V210 9999 -RA OVC015 10/07 Q1009 WHT TEMPO 4500 RADZ SCT012 BKN014
13:07
M
10 °C 10 km+ 1.600 ft 180° 180° 11 kt METAR EHVK 291207Z AUTO 18011KT 150V210 9999 DZRA OVC016 10/06 Q1009 WHT TEMPO 4500 RADZ SCT012 BKN014
12:55
M
10 °C 10 km+ 1.600 ft 180° 180° 10 kt METAR EHVK 291155Z AUTO 18010KT 150V220 9999 DZ OVC016 10/06 Q1009 WHT TEMPO 4500 RADZ SCT012 BKN014
12:25
M
9 °C 10 km+ 1.500 ft 190° 190° 12 kt METAR EHVK 291125Z AUTO 19012KT 150V220 9999 -DZ OVC015 09/06 Q1010 WHT TEMPO 4500 RADZ SCT012 BKN014
12:14
M
9 °C 10 km+ 1.500 ft 180° 180° 10 kt METAR EHVK 291114Z AUTO 18010KT 150V210 9999 -DZRA OVC015 09/06 Q1010 WHT TEMPO 4500 RADZ SCT012 BKN014
11:55
M
9 °C 10 km+ 1.500 ft 180° 180° 10 kt METAR EHVK 291055Z AUTO 18010KT 140V220 9999 OVC015 09/06 Q1010 WHT TEMPO 4500 RADZ SCT012 BKN014
11:36
M
9 °C 10 km+ 1.500 ft 180° 180° 11 kt METAR EHVK 291036Z AUTO 18011KT 140V230 9999 OVC015 09/06 Q1010 WHT TEMPO 4500 RADZ SCT012 BKN014
11:25
M
9 °C 10 km+ 1.400 ft 180° 180° 10 kt METAR EHVK 291025Z AUTO 18010KT 150V210 9999 OVC014 09/06 Q1010 GRN TEMPO 4500 RADZ SCT012 BKN014
10:55
M
9 °C 10 km+ 1.500 ft 180° 180° 10 kt METAR EHVK 290955Z AUTO 18010KT 150V230 9999 OVC015 09/06 Q1010 WHT TEMPO 4500 RADZ SCT012 BKN014
10:25
M
9 °C 10 km+ 1.500 ft 180° 180° 11 kt METAR EHVK 290925Z AUTO 18011KT 150V240 9999 OVC015 09/06 Q1010 WHT TEMPO 4500 RADZ SCT012 BKN014
09:55
M
8 °C 10 km+ 1.500 ft 180° 180° 10 kt METAR EHVK 290855Z AUTO 18010KT 150V210 9999 OVC015 08/06 Q1011 WHT TEMPO 4500 RADZ SCT012 BKN014
09:38
M
8 °C 10 km+ 1.500 ft 170° 170° 9 kt METAR EHVK 290838Z AUTO 17009KT 130V200 9999 BKN015 OVC025 08/06 Q1011 WHT TEMPO 4500 RADZ SCT012 BKN014
09:34
M
8 °C 10 km+ 2.500 ft 170° 170° 9 kt METAR EHVK 290834Z AUTO 17009KT 130V200 9999 SCT015 BKN025 OVC038 08/06 Q1011 WHT TEMPO 4500 RADZ SCT012 BKN014
09:25
M
8 °C 10 km+ 1.600 ft 170° 170° 8 kt METAR EHVK 290825Z AUTO 17008KT 140V200 9999 BKN016 OVC023 08/05 Q1011 WHT TEMPO 4500 RADZ SCT012 BKN014
08:55
M
7 °C 10 km+ 1.500 ft 170° 170° 8 kt METAR EHVK 290755Z AUTO 17008KT 130V190 9999 -UP OVC015 07/05 Q1011 WHT TEMPO 4500 RADZ SCT012 BKN014
08:25
M
7 °C 10 km+ 1.400 ft 180° 180° 8 kt METAR EHVK 290725Z AUTO 18008KT 9999 OVC014 07/05 Q1011 GRN TEMPO 4500 RADZ
08:13
M
7 °C 10 km+ 1.400 ft 190° 190° 9 kt METAR EHVK 290713Z AUTO 19009KT 9999 -DZ BKN014 OVC018 07/05 Q1011 GRN TEMPO 4500 RADZ
07:55
M
7 °C 10 km+ 1.400 ft 180° 180° 9 kt METAR EHVK 290655Z AUTO 18009KT 140V200 9999 -DZ OVC014 07/05 Q1011 GRN TEMPO 4500 RADZ
07:44
M
7 °C 10 km+ 1.600 ft 190° 190° 9 kt METAR EHVK 290644Z AUTO 19009KT 140V220 9999 FEW014 BKN016 OVC020 07/05 Q1011 WHT
07:26
M
7 °C 10 km+ 1.400 ft 190° 190° 10 kt METAR EHVK 290626Z AUTO 19010KT 150V220 9999 BKN014 OVC020 07/05 Q1012 GRN
07:25
M
7 °C 10 km+ 2.000 ft 190° 190° 10 kt METAR EHVK 290625Z AUTO 19010KT 150V220 9999 SCT013 BKN020 OVC025 07/05 Q1012 GRN
06:55
M
7 °C 10 km+ 1.400 ft 180° 180° 8 kt METAR EHVK 290555Z AUTO 18008KT 9999 OVC014 07/04 Q1012 GRN